createdAt,value
2022-10-11T00:04:32.857Z,0.2
2022-10-11T00:09:32.902Z,0.2
2022-10-11T00:14:32.827Z,0.2
2022-10-11T00:19:36.794Z,0.1
2022-10-11T00:24:33.264Z,0.2
2022-10-11T00:29:33.255Z,0.2
2022-10-11T00:34:33.180Z,0.1
2022-10-11T00:39:33.072Z,0.2
2022-10-11T00:44:32.913Z,0.2
2022-10-11T00:49:32.861Z,0.2
2022-10-11T00:54:32.810Z,0.3
2022-10-11T00:59:32.841Z,0.2
2022-10-11T01:04:32.955Z,0.2
2022-10-11T01:09:32.821Z,0.2
2022-10-11T01:14:32.837Z,0.2
2022-10-11T01:19:32.826Z,0.2
2022-10-11T01:24:32.859Z,0.1
2022-10-11T01:29:32.866Z,0.3
2022-10-11T01:34:32.836Z,0.2
2022-10-11T01:39:32.933Z,0.3
2022-10-11T01:44:32.839Z,0.2
2022-10-11T01:49:32.849Z,0.2
2022-10-11T01:54:56.910Z,0.2
2022-10-11T01:59:32.837Z,0.2
2022-10-11T02:04:32.801Z,0.1
2022-10-11T02:09:32.836Z,0.2
2022-10-11T02:14:32.838Z,0.2
2022-10-11T02:19:32.827Z,0.2
2022-10-11T02:24:32.829Z,0.2
2022-10-11T02:29:32.885Z,0.1
2022-10-11T02:34:32.860Z,0.1
2022-10-11T02:39:32.965Z,0.2
2022-10-11T02:44:32.833Z,0.2
2022-10-11T02:49:32.842Z,0.2
2022-10-11T02:54:32.842Z,0.2
2022-10-11T02:59:32.847Z,0.2
2022-10-11T03:04:32.861Z,0.2
2022-10-11T03:09:32.859Z,0.1
2022-10-11T03:14:32.868Z,0.2
2022-10-11T03:19:32.829Z,0.2
2022-10-11T03:24:32.823Z,0.1
2022-10-11T03:29:32.848Z,0.1
2022-10-11T03:34:32.915Z,0.2
2022-10-11T03:39:32.852Z,0.2
2022-10-11T03:44:32.884Z,0.2
2022-10-11T03:49:33.023Z,0.1
2022-10-11T03:54:32.878Z,0.1
2022-10-11T03:59:32.911Z,0.2
2022-10-11T04:04:32.917Z,0.2
2022-10-11T04:09:32.941Z,0.2
2022-10-11T04:14:32.847Z,0.2
2022-10-11T04:19:32.911Z,0.1
2022-10-11T04:24:32.921Z,0.1
2022-10-11T04:29:33.931Z,0.2
2022-10-11T04:34:32.966Z,0.3
2022-10-11T04:39:32.908Z,0.1
2022-10-11T04:44:32.982Z,0.2
2022-10-11T04:49:32.953Z,0.2
2022-10-11T04:54:33.016Z,0.2
2022-10-11T04:59:32.916Z,0.2
2022-10-11T05:04:32.992Z,0.1
2022-10-11T05:09:32.908Z,0.2
2022-10-11T05:14:32.973Z,0.2
2022-10-11T05:19:32.937Z,0.1
2022-10-11T05:24:32.911Z,0.2
2022-10-11T05:29:32.912Z,0.2
2022-10-11T05:34:32.922Z,0.2
2022-10-11T05:39:32.939Z,0.3
2022-10-11T05:44:32.961Z,0.2
2022-10-11T05:49:32.888Z,0.2
2022-10-11T05:54:32.956Z,0.2
2022-10-11T05:59:32.947Z,0.1
2022-10-11T06:04:32.923Z,0.2
2022-10-11T06:09:32.983Z,0.2
2022-10-11T06:14:32.964Z,0.2
2022-10-11T06:19:32.915Z,0.3
2022-10-11T06:24:33.009Z,0.3
2022-10-11T06:29:32.932Z,0.4
2022-10-11T06:34:33.005Z,0.6
2022-10-11T06:39:32.931Z,0.5
2022-10-11T06:44:32.883Z,0.5
2022-10-11T06:49:33.624Z,0.6
2022-10-11T06:54:32.902Z,0.5
2022-10-11T06:59:32.924Z,0.5
2022-10-11T07:04:32.976Z,0.6
2022-10-11T07:09:32.905Z,0.8
2022-10-11T07:14:32.896Z,0.1
2022-10-11T07:19:33.008Z,0.12
2022-10-11T07:24:32.970Z,0.11
2022-10-11T07:29:32.933Z,0.13
2022-10-11T07:34:32.926Z,0.13
2022-10-11T07:39:32.874Z,0.11
2022-10-11T07:44:32.919Z,0.13
2022-10-11T07:49:32.897Z,0.15
2022-10-11T07:54:32.903Z,0.24
2022-10-11T07:59:32.910Z,0.36
2022-10-11T08:04:33.024Z,0.34
2022-10-11T08:09:32.977Z,0.35
2022-10-11T08:14:32.908Z,0.33
2022-10-11T08:19:32.891Z,0.25
2022-10-11T08:24:38.379Z,0.24
2022-10-11T08:29:33.005Z,0.25
2022-10-11T08:34:32.929Z,0.43
2022-10-11T08:39:33.015Z,0.57
2022-10-11T08:44:52.072Z,0.79
2022-10-11T08:49:33.935Z,0.57
2022-10-11T08:54:32.904Z,0.64
2022-10-11T08:59:32.982Z,0.44
2022-10-11T09:04:32.965Z,1.52
2022-10-11T09:09:32.943Z,2.88
2022-10-11T09:14:32.963Z,0.76
2022-10-11T09:19:33.013Z,0.48
2022-10-11T09:24:32.941Z,0.39
2022-10-11T09:29:32.983Z,0.53
2022-10-11T09:34:33.778Z,0.55
2022-10-11T09:39:32.971Z,0.6
2022-10-11T09:44:33.050Z,0.53
2022-10-11T09:49:33.015Z,0.58
2022-10-11T09:54:33.008Z,0.36
2022-10-11T09:59:32.982Z,0.39
2022-10-11T10:04:33.165Z,0.68
2022-10-11T10:09:35.050Z,0.27
2022-10-11T10:14:32.973Z,0.19
2022-10-11T10:19:32.944Z,0.21
2022-10-11T10:24:32.931Z,0.19
2022-10-11T10:29:32.977Z,0.24
2022-10-11T10:34:32.968Z,0.31
2022-10-11T10:39:32.976Z,0.48
2022-10-11T10:44:33.001Z,0.57
2022-10-11T10:49:53.957Z,0.81
2022-10-11T10:54:33.010Z,0.92
2022-10-11T10:59:32.969Z,0.56
2022-10-11T11:04:32.998Z,0.81
2022-10-11T11:09:32.965Z,0.9
2022-10-11T11:14:36.727Z,0.7
2022-10-11T11:19:32.988Z,0.62
2022-10-11T11:24:32.949Z,0.51
2022-10-11T11:29:32.947Z,0.56
2022-10-11T11:34:32.930Z,0.41
2022-10-11T11:39:32.936Z,0.36
2022-10-11T11:44:33.378Z,0.26
2022-10-11T11:49:33.586Z,0.34
2022-10-11T11:54:32.998Z,0.38
2022-10-11T11:59:33.093Z,0.49
2022-10-11T12:04:43.749Z,0.52
2022-10-11T12:09:32.959Z,0.51
2022-10-11T12:14:32.985Z,0.55
2022-10-11T12:19:32.979Z,0.43
2022-10-11T12:24:33.056Z,0.41
2022-10-11T12:29:33.833Z,0.39
2022-10-11T12:34:33.002Z,0.42
2022-10-11T12:39:32.993Z,0.45
2022-10-11T12:44:32.926Z,0.41
2022-10-11T12:49:33.172Z,0.36
2022-10-11T12:54:38.498Z,0.41
2022-10-11T12:59:33.012Z,0.35
2022-10-11T13:14:32.978Z,0.42
2022-10-11T13:19:33.114Z,0.33
2022-10-11T13:24:32.934Z,0.21
2022-10-11T13:29:34.421Z,0.19
2022-10-11T13:34:35.977Z,0.18
2022-10-11T13:39:32.963Z,0.17
2022-10-11T13:44:32.952Z,0.17
2022-10-11T13:49:32.946Z,0.14
2022-10-11T13:54:33.053Z,0.17
2022-10-11T13:59:33.017Z,0.17
2022-10-11T14:04:54.797Z,0.13
2022-10-11T14:09:33.084Z,0.19
2022-10-11T14:14:33.064Z,0.24
2022-10-11T14:19:42.304Z,0.25
2022-10-11T14:29:37.339Z,0.22
2022-10-11T14:34:33.210Z,0.21
2022-10-11T14:39:36.487Z,0.18
2022-10-11T14:44:33.072Z,0.15
2022-10-11T14:49:33.226Z,0.13
2022-10-11T14:54:33.106Z,0.14
2022-10-11T14:59:33.044Z,0.16
2022-10-11T15:04:33.198Z,0.16
2022-10-11T15:09:33.080Z,0.14
2022-10-11T15:14:33.115Z,0.16
2022-10-11T15:19:33.071Z,0.12
2022-10-11T15:24:33.136Z,0.12
2022-10-11T15:29:33.043Z,0.12
2022-10-11T15:34:33.108Z,0.11
2022-10-11T15:39:33.113Z,0.11
2022-10-11T15:44:33.469Z,0.1
2022-10-11T15:49:33.070Z,0.9
2022-10-11T15:54:33.074Z,0.8
2022-10-11T15:59:33.034Z,0.6
2022-10-11T16:04:33.096Z,0.6
2022-10-11T16:09:33.009Z,0.4
2022-10-11T16:14:33.131Z,0.3
2022-10-11T16:19:33.153Z,0.3
2022-10-11T16:24:33.075Z,0.2
2022-10-11T16:29:33.105Z,0.3
2022-10-11T16:34:33.092Z,0.3
2022-10-11T16:39:33.139Z,0.2
2022-10-11T16:44:33.198Z,0.1
2022-10-11T16:49:33.185Z,0.2
2022-10-11T16:54:33.130Z,0.2
2022-10-11T16:59:33.263Z,0.2
2022-10-11T17:04:33.155Z,0.2
2022-10-11T17:09:33.119Z,0.2
2022-10-11T17:14:33.017Z,0.2
2022-10-11T17:19:33.199Z,0.2
2022-10-11T17:24:33.160Z,0.3
2022-10-11T17:29:33.067Z,0.2
2022-10-11T17:34:33.171Z,0.2
2022-10-11T17:39:33.152Z,0.3
2022-10-11T17:44:33.215Z,0.1
2022-10-11T17:49:33.189Z,0.2
2022-10-11T17:54:33.279Z,0.1
2022-10-11T17:59:33.165Z,0.2
2022-10-11T18:04:33.376Z,0.2
2022-10-11T18:09:33.189Z,0.2
2022-10-11T18:14:33.289Z,0.2
2022-10-11T18:19:33.151Z,0.2
2022-10-11T18:24:33.249Z,0.2
2022-10-11T18:29:33.254Z,0.2
2022-10-11T18:34:33.246Z,0.1
2022-10-11T18:39:33.138Z,0.2
2022-10-11T18:44:33.255Z,0.2
2022-10-11T18:49:33.274Z,0.2
2022-10-11T18:54:33.274Z,0.3
2022-10-11T18:59:33.098Z,0.2
2022-10-11T19:04:33.147Z,0.2
2022-10-11T19:09:33.291Z,0.2
2022-10-11T19:14:33.218Z,0.3
2022-10-11T19:19:33.163Z,0.2
2022-10-11T19:24:33.252Z,0.1
2022-10-11T19:29:33.258Z,0.2
2022-10-11T19:34:33.159Z,0.2
2022-10-11T19:39:33.244Z,0.2
2022-10-11T19:44:37.279Z,0.2
2022-10-11T19:49:33.144Z,0.2
2022-10-11T19:54:33.299Z,0.1
2022-10-11T19:59:33.272Z,0.2
2022-10-11T20:04:51.908Z,0.2
2022-10-11T20:09:33.341Z,0.2
2022-10-11T20:14:33.198Z,0.1
2022-10-11T20:19:33.134Z,0.2
2022-10-11T20:24:33.408Z,0.2
2022-10-11T20:29:33.190Z,0.1
2022-10-11T20:34:33.178Z,0.2
2022-10-11T20:39:33.102Z,0.1
2022-10-11T20:44:33.287Z,0.2
2022-10-11T20:49:33.135Z,0.2
2022-10-11T20:54:33.227Z,0.2
2022-10-11T20:59:33.118Z,0.2
2022-10-11T21:04:33.188Z,0.2
2022-10-11T21:09:33.250Z,0.2
2022-10-11T21:14:33.229Z,0.1
2022-10-11T21:19:33.225Z,0.1
2022-10-11T21:24:33.240Z,0.2
2022-10-11T21:29:33.134Z,0.2
2022-10-11T21:34:33.083Z,0.1
2022-10-11T21:39:33.072Z,0.1
2022-10-11T21:44:33.082Z,0.2
2022-10-11T21:49:33.082Z,0.2
2022-10-11T21:54:33.076Z,0.2
2022-10-11T21:59:33.111Z,0.2
2022-10-11T22:04:33.069Z,0.2
2022-10-11T22:09:33.153Z,0.1
2022-10-11T22:14:33.196Z,0.2
2022-10-11T22:19:34.761Z,0.2
2022-10-11T22:24:33.072Z,0.2
2022-10-11T22:29:36.094Z,0.2
2022-10-11T22:34:33.130Z,0.1
2022-10-11T22:39:33.054Z,0.2
2022-10-11T22:44:33.068Z,0.2
2022-10-11T22:49:33.068Z,0.2
2022-10-11T22:54:33.110Z,0.2
2022-10-11T22:59:33.122Z,0.2
2022-10-11T23:04:33.121Z,0.2
2022-10-11T23:09:33.092Z,0.2
2022-10-11T23:14:33.177Z,0.2
2022-10-11T23:19:33.086Z,0.1
2022-10-11T23:24:33.102Z,0.2
2022-10-11T23:29:33.118Z,0.2
2022-10-11T23:34:33.113Z,0.2
2022-10-11T23:39:33.142Z,0.1
2022-10-11T23:44:33.138Z,0.2
2022-10-11T23:49:33.115Z,0.2
2022-10-11T23:54:33.166Z,0.2
2022-10-11T23:59:33.149Z,0.2
